Time;durP1;ratioP1;P1;durP2;ratioP2;P2;SDS_P1;SDS_P2;PMS_P1;PMS_P2;Temp;Humidity;BMP_temperature;BMP_pressure;BME280_temperature;BME280_humidity;BME280_pressure;Samples;Min_cycle;Max_cycle;Signal;HPM_P1;HPM_P2
2021/08/14 00:01:24;;;;;;;8.73;5.95;;;21.30;83.40;;;;;;4975201;28;20053;-85
2021/08/14 00:03:49;;;;;;;8.95;6.10;;;21.30;84.10;;;;;;4971470;28;20120;-86
2021/08/14 00:06:16;;;;;;;10.32;5.85;;;21.10;85.40;;;;;;4969347;28;20030;-85
2021/08/14 00:08:42;;;;;;;7.43;5.68;;;21.10;85.40;;;;;;4971445;28;20552;-85
2021/08/14 00:11:08;;;;;;;7.60;5.70;;;21.10;85.50;;;;;;4973511;28;20034;-86
2021/08/14 00:13:34;;;;;;;6.75;5.20;;;21.10;86.40;;;;;;4990422;28;20081;-86
2021/08/14 00:15:59;;;;;;;9.40;5.78;;;21.00;86.10;;;;;;4982649;28;20039;-86
2021/08/14 00:18:25;;;;;;;11.93;5.97;;;21.10;85.80;;;;;;4980251;28;20057;-85
2021/08/14 00:20:50;;;;;;;10.48;5.93;;;21.10;85.50;;;;;;4983176;28;20038;-85
2021/08/14 00:23:16;;;;;;;9.38;5.38;;;21.20;85.00;;;;;;4982861;28;20031;-85
2021/08/14 00:25:42;;;;;;;6.95;5.70;;;21.20;84.40;;;;;;4980000;28;20640;-85
2021/08/14 00:28:08;;;;;;;9.05;5.10;;;21.20;84.40;;;;;;4995890;28;20054;-85
2021/08/14 00:30:34;;;;;;;9.35;5.18;;;21.20;85.10;;;;;;4984285;28;20035;-86
2021/08/14 00:32:59;;;;;;;9.57;6.03;;;21.20;85.00;;;;;;4981369;28;20031;-86
2021/08/14 00:35:25;;;;;;;9.88;6.28;;;21.00;86.20;;;;;;4985821;28;20030;-85
2021/08/14 00:37:52;;;;;;;8.13;6.15;;;21.10;84.30;;;;;;4989052;28;20065;-86
2021/08/14 00:40:18;;;;;;;7.40;5.37;;;21.10;85.00;;;;;;5004344;28;20117;-86
2021/08/14 00:42:44;;;;;;;8.98;6.13;;;21.10;85.50;;;;;;5001822;28;20104;-86
2021/08/14 00:45:09;;;;;;;8.73;5.88;;;21.10;85.80;;;;;;4982288;28;20125;-85
2021/08/14 00:47:38;;;;;;;8.30;6.00;;;21.00;86.30;;;;;;5002311;28;20101;-85
2021/08/14 00:50:04;;;;;;;8.88;5.30;;;21.10;85.50;;;;;;4988503;28;20041;-85
2021/08/14 00:52:30;;;;;;;6.80;5.53;;;21.00;85.30;;;;;;5003311;28;20034;-85
2021/08/14 00:54:55;;;;;;;10.35;5.93;;;21.10;85.50;;;;;;4993329;28;20046;-85
2021/08/14 00:57:21;;;;;;;8.75;5.60;;;21.10;85.50;;;;;;5003336;28;20085;-86
2021/08/14 00:59:49;;;;;;;11.45;5.47;;;21.10;85.50;;;;;;5006172;28;20556;-86
2021/08/14 01:02:17;;;;;;;8.60;5.80;;;21.10;84.90;;;;;;5002826;28;20570;-85
2021/08/14 01:04:45;;;;;;;6.55;5.55;;;21.10;84.90;;;;;;5000044;28;21599;-85
2021/08/14 01:07:10;;;;;;;8.27;6.10;;;21.10;84.80;;;;;;5003205;28;20542;-85
2021/08/14 01:09:36;;;;;;;6.47;5.40;;;21.10;84.60;;;;;;4988447;28;20148;-85
2021/08/14 01:12:02;;;;;;;8.63;5.95;;;21.10;84.40;;;;;;5000858;28;20032;-85
2021/08/14 01:14:30;;;;;;;9.05;5.57;;;21.10;84.50;;;;;;4998999;28;20037;-85
2021/08/14 01:16:56;;;;;;;8.52;5.97;;;21.10;84.60;;;;;;4987862;28;20042;-85
2021/08/14 01:19:22;;;;;;;8.10;5.55;;;21.10;84.90;;;;;;5001345;28;20045;-85
2021/08/14 01:21:52;;;;;;;8.43;5.28;;;21.10;84.70;;;;;;4992690;28;20038;-85
2021/08/14 01:24:22;;;;;;;9.80;5.43;;;21.10;84.40;;;;;;4999831;28;20498;-85
2021/08/14 01:26:49;;;;;;;10.77;5.25;;;21.10;84.60;;;;;;4998636;28;20101;-85
2021/08/14 01:29:15;;;;;;;9.93;5.70;;;21.10;84.60;;;;;;4998612;28;20021;-85
2021/08/14 01:31:41;;;;;;;9.85;6.03;;;21.10;84.70;;;;;;4988755;28;20439;-86
2021/08/14 01:34:07;;;;;;;9.45;5.82;;;21.10;84.90;;;;;;4983284;28;20026;-86
2021/08/14 01:36:32;;;;;;;10.75;6.30;;;21.10;84.70;;;;;;4987571;28;20052;-85
2021/08/14 01:39:00;;;;;;;11.05;6.00;;;21.00;84.80;;;;;;4989697;28;20034;-85
2021/08/14 01:41:27;;;;;;;8.65;6.55;;;21.00;84.90;;;;;;4991262;28;20129;-86
2021/08/14 01:44:00;;;;;;;10.23;6.03;;;20.90;85.60;;;;;;4987297;28;20026;-85
2021/08/14 01:46:29;;;;;;;9.50;6.00;;;20.80;85.80;;;;;;4981090;28;20063;-85
2021/08/14 01:48:54;;;;;;;10.75;6.00;;;20.90;85.50;;;;;;4984899;28;20142;-86
2021/08/14 01:51:20;;;;;;;9.15;5.68;;;20.80;85.90;;;;;;4983106;28;20080;-85
2021/08/14 01:53:50;;;;;;;7.80;6.05;;;20.80;85.70;;;;;;5006192;28;20087;-85
2021/08/14 01:56:18;;;;;;;9.70;5.63;;;20.70;86.40;;;;;;4987104;28;20037;-86
2021/08/14 01:58:43;;;;;;;7.83;5.70;;;20.50;87.20;;;;;;4982264;28;20121;-86
2021/08/14 02:01:10;;;;;;;10.35;5.75;;;20.50;87.20;;;;;;4985414;28;20047;-85
2021/08/14 02:03:36;;;;;;;8.85;5.82;;;20.60;86.90;;;;;;5006800;28;20061;-86
2021/08/14 02:06:03;;;;;;;10.48;5.55;;;20.60;86.40;;;;;;4996413;28;20116;-85
2021/08/14 02:08:29;;;;;;;10.38;5.80;;;20.60;86.40;;;;;;5002971;28;20022;-86
2021/08/14 02:10:55;;;;;;;7.93;5.07;;;20.70;86.30;;;;;;4985637;28;20034;-86
2021/08/14 02:13:21;;;;;;;9.35;5.60;;;20.60;86.80;;;;;;4986415;28;20033;-86
2021/08/14 02:15:46;;;;;;;8.90;4.97;;;20.60;86.40;;;;;;4987541;28;20124;-86
2021/08/14 02:18:12;;;;;;;8.05;5.15;;;20.60;86.40;;;;;;5001947;28;20025;-86
2021/08/14 02:20:38;;;;;;;8.02;5.40;;;20.60;85.90;;;;;;4989143;28;20368;-86
2021/08/14 02:23:03;;;;;;;9.90;5.05;;;20.60;85.60;;;;;;4997289;28;20073;-86
2021/08/14 02:25:29;;;;;;;10.57;5.72;;;20.60;85.60;;;;;;5005893;28;20022;-86
2021/08/14 02:27:54;;;;;;;7.68;5.57;;;20.60;85.90;;;;;;5005657;28;20410;-86
2021/08/14 02:30:20;;;;;;;9.77;5.25;;;20.60;86.90;;;;;;4984298;28;20321;-85
2021/08/14 02:32:47;;;;;;;13.85;5.55;;;20.60;86.30;;;;;;5007531;28;20037;-86
2021/08/14 02:35:13;;;;;;;8.65;5.47;;;20.60;86.40;;;;;;5007154;28;20466;-86
2021/08/14 02:37:39;;;;;;;10.38;6.03;;;20.60;86.50;;;;;;5005835;28;20041;-85
2021/08/14 02:40:07;;;;;;;9.73;5.88;;;20.60;86.50;;;;;;4986508;28;20034;-85
2021/08/14 02:42:32;;;;;;;7.07;5.50;;;20.60;86.30;;;;;;4977097;28;20053;-85
2021/08/14 02:44:58;;;;;;;8.38;5.55;;;20.60;86.30;;;;;;4984469;28;20026;-86
2021/08/14 02:47:23;;;;;;;7.38;5.50;;;20.60;86.50;;;;;;5006449;28;20087;-85
2021/08/14 02:49:49;;;;;;;8.85;5.20;;;20.60;86.20;;;;;;5000504;28;20030;-85
2021/08/14 02:52:15;;;;;;;9.10;5.53;;;20.60;86.40;;;;;;5002287;28;20191;-86
2021/08/14 02:54:40;;;;;;;5.97;5.10;;;20.60;86.00;;;;;;4982278;28;20030;-86
2021/08/14 02:57:06;;;;;;;7.53;5.55;;;20.60;86.00;;;;;;4993370;28;20495;-86
2021/08/14 02:59:31;;;;;;;9.68;5.75;;;20.60;86.00;;;;;;5009762;28;20030;-86
2021/08/14 03:01:57;;;;;;;7.82;5.60;;;20.50;86.50;;;;;;5002490;28;20140;-86
2021/08/14 03:04:23;;;;;;;7.75;5.97;;;20.50;86.40;;;;;;4986308;28;20095;-86
2021/08/14 03:06:57;;;;;;;7.43;5.13;;;20.50;87.00;;;;;;5001736;28;20034;-86
2021/08/14 03:09:23;;;;;;;8.65;5.07;;;20.50;86.70;;;;;;5004258;28;20037;-86
2021/08/14 03:11:49;;;;;;;7.75;5.00;;;20.40;87.00;;;;;;5006926;28;20026;-86
2021/08/14 03:14:14;;;;;;;7.28;5.72;;;20.40;86.60;;;;;;4982961;28;20030;-86
2021/08/14 03:16:40;;;;;;;6.60;4.90;;;20.40;86.50;;;;;;5011459;28;20430;-86
2021/08/14 03:19:06;;;;;;;6.70;5.22;;;20.40;86.60;;;;;;4993719;28;20030;-86
2021/08/14 03:21:31;;;;;;;8.60;5.15;;;20.40;86.60;;;;;;5000829;28;20061;-86
2021/08/14 03:23:57;;;;;;;5.75;4.57;;;20.40;87.40;;;;;;5003766;28;20521;-86
2021/08/14 03:26:23;;;;;;;8.52;4.93;;;20.40;86.30;;;;;;5003089;28;20061;-86
2021/08/14 03:28:48;;;;;;;7.95;5.13;;;20.30;86.20;;;;;;5000097;28;20121;-86
2021/08/14 03:31:14;;;;;;;8.10;5.20;;;20.30;87.10;;;;;;5004385;28;20065;-86
2021/08/14 03:33:40;;;;;;;8.40;5.30;;;20.30;86.80;;;;;;4997709;28;20099;-86
2021/08/14 03:36:06;;;;;;;10.63;5.53;;;20.30;86.90;;;;;;5000071;28;20022;-86
2021/08/14 03:38:31;;;;;;;8.23;5.40;;;20.30;86.40;;;;;;4985366;28;20040;-86
2021/08/14 03:40:57;;;;;;;6.90;5.53;;;20.30;86.30;;;;;;4986944;28;20054;-86
2021/08/14 03:43:23;;;;;;;8.15;5.65;;;20.20;86.40;;;;;;5002760;28;20294;-86
2021/08/14 03:45:48;;;;;;;9.48;5.30;;;20.20;86.90;;;;;;5001819;28;20053;-86
2021/08/14 03:48:14;;;;;;;9.30;5.68;;;20.10;87.10;;;;;;5006017;28;20036;-86
2021/08/14 03:50:40;;;;;;;9.35;5.70;;;20.20;86.90;;;;;;5001844;28;20022;-86
2021/08/14 03:53:05;;;;;;;7.65;4.95;;;20.10;87.50;;;;;;4982709;28;20058;-86
2021/08/14 03:55:31;;;;;;;7.57;5.32;;;20.10;87.40;;;;;;4999797;28;20092;-86
2021/08/14 03:57:57;;;;;;;9.27;5.30;;;20.10;87.00;;;;;;4982996;28;20061;-86
2021/08/14 04:00:23;;;;;;;6.90;5.22;;;20.10;86.70;;;;;;4999625;28;20034;-86
2021/08/14 04:02:49;;;;;;;7.85;5.32;;;20.10;86.80;;;;;;5002767;28;20520;-86
2021/08/14 04:05:14;;;;;;;6.20;4.90;;;20.10;86.70;;;;;;5003928;28;20021;-86
2021/08/14 04:07:40;;;;;;;8.68;4.70;;;20.00;87.40;;;;;;4987473;28;20018;-86
2021/08/14 04:10:06;;;;;;;6.07;4.63;;;19.90;86.20;;;;;;4992634;28;20060;-86
2021/08/14 04:12:32;;;;;;;7.13;4.88;;;20.00;86.40;;;;;;5000507;28;20025;-86
2021/08/14 04:14:59;;;;;;;11.15;5.30;;;20.00;86.50;;;;;;4978753;28;20033;-86
2021/08/14 04:17:25;;;;;;;7.72;5.75;;;20.00;86.30;;;;;;4999767;28;20050;-86
2021/08/14 04:19:51;;;;;;;7.18;5.22;;;19.90;86.30;;;;;;5001712;28;20076;-85
2021/08/14 04:22:16;;;;;;;8.43;5.57;;;19.90;86.60;;;;;;5001155;28;20030;-85
2021/08/14 04:24:42;;;;;;;11.38;5.28;;;19.90;86.80;;;;;;4983711;28;20105;-85
2021/08/14 04:27:08;;;;;;;8.32;5.50;;;19.90;86.80;;;;;;4985109;28;20437;-85
2021/08/14 04:29:34;;;;;;;6.65;5.13;;;19.90;87.00;;;;;;4994790;28;20092;-85
2021/08/14 04:32:00;;;;;;;7.43;4.95;;;19.80;87.30;;;;;;4983979;28;20092;-85
2021/08/14 04:34:25;;;;;;;7.60;5.47;;;19.80;87.10;;;;;;5005803;28;20025;-85
2021/08/14 04:36:51;;;;;;;8.25;5.38;;;19.80;87.30;;;;;;5003108;28;20040;-85
2021/08/14 04:39:17;;;;;;;7.03;5.70;;;19.80;87.40;;;;;;5009325;28;20037;-86
2021/08/14 04:41:42;;;;;;;7.97;6.15;;;19.80;87.50;;;;;;5002160;28;20096;-86
2021/08/14 04:44:08;;;;;;;10.95;6.15;;;19.80;87.80;;;;;;4986928;28;20041;-86
2021/08/14 04:46:34;;;;;;;9.32;6.03;;;19.80;87.90;;;;;;5006722;28;20483;-86
2021/08/14 04:48:59;;;;;;;9.30;6.07;;;19.80;88.10;;;;;;4985179;28;20427;-86
2021/08/14 04:51:25;;;;;;;8.98;6.10;;;19.80;88.00;;;;;;5003268;28;20030;-86
2021/08/14 04:53:50;;;;;;;12.00;6.03;;;19.80;87.80;;;;;;4992557;28;21285;-86
2021/08/14 04:56:16;;;;;;;9.20;5.88;;;19.90;88.00;;;;;;4995300;28;20041;-86
2021/08/14 04:58:42;;;;;;;10.60;6.63;;;19.90;87.70;;;;;;4985044;28;20021;-85
2021/08/14 05:01:07;;;;;;;9.05;6.10;;;19.90;87.70;;;;;;5004509;28;20779;-85
2021/08/14 05:03:33;;;;;;;9.68;6.25;;;19.90;87.40;;;;;;5004590;28;20116;-85
2021/08/14 05:05:59;;;;;;;10.63;5.68;;;19.90;87.70;;;;;;4996322;28;20105;-85
2021/08/14 05:08:24;;;;;;;8.32;5.95;;;19.90;88.30;;;;;;5003638;28;20594;-85
2021/08/14 05:10:50;;;;;;;9.50;6.07;;;20.00;87.70;;;;;;4999817;28;20030;-85
2021/08/14 05:13:16;;;;;;;7.97;6.00;;;20.00;87.60;;;;;;4998123;28;20092;-85
2021/08/14 05:15:42;;;;;;;9.57;5.95;;;20.00;87.60;;;;;;4999211;28;20022;-85
2021/08/14 05:18:07;;;;;;;10.25;6.70;;;20.10;87.50;;;;;;5005322;28;20184;-85
2021/08/14 05:20:33;;;;;;;8.88;5.88;;;20.10;87.60;;;;;;4995099;28;20620;-85
2021/08/14 05:22:59;;;;;;;10.80;6.15;;;20.20;87.50;;;;;;5005022;28;20498;-85
2021/08/14 05:25:26;;;;;;;9.45;6.00;;;20.20;87.40;;;;;;4985894;28;20398;-85
2021/08/14 05:27:51;;;;;;;10.57;6.13;;;20.20;87.30;;;;;;5003047;28;20060;-85
2021/08/14 05:30:17;;;;;;;7.22;6.07;;;20.30;87.30;;;;;;4998998;28;20022;-85
2021/08/14 05:32:43;;;;;;;8.73;6.30;;;20.30;86.90;;;;;;4986456;28;20391;-85
2021/08/14 05:35:09;;;;;;;11.10;6.35;;;20.30;86.70;;;;;;5002821;28;20055;-86
2021/08/14 05:37:34;;;;;;;11.50;7.03;;;20.30;86.50;;;;;;4983808;28;20203;-86
2021/08/14 05:40:00;;;;;;;8.18;6.55;;;20.40;86.40;;;;;;4983085;28;20022;-86
2021/08/14 05:42:26;;;;;;;9.98;6.32;;;20.40;86.30;;;;;;5007112;28;20415;-86
2021/08/14 05:44:51;;;;;;;9.70;6.18;;;20.40;86.10;;;;;;4999155;28;20238;-86
2021/08/14 05:47:17;;;;;;;9.82;6.43;;;20.40;86.00;;;;;;4999507;28;20743;-86
2021/08/14 05:49:42;;;;;;;11.43;6.60;;;20.50;86.20;;;;;;5001168;28;20034;-86
2021/08/14 05:52:08;;;;;;;9.85;6.30;;;20.50;86.20;;;;;;4998486;28;20033;-86
2021/08/14 05:54:34;;;;;;;11.05;6.40;;;20.60;86.50;;;;;;4996621;28;20034;-86
2021/08/14 05:57:01;;;;;;;8.70;5.88;;;20.60;86.70;;;;;;4997724;28;20045;-86
2021/08/14 05:59:26;;;;;;;8.85;6.28;;;20.60;86.20;;;;;;5000136;28;20076;-86
2021/08/14 06:01:52;;;;;;;7.80;6.05;;;20.60;86.00;;;;;;5007496;28;20566;-86
2021/08/14 06:04:18;;;;;;;9.38;6.43;;;20.70;85.80;;;;;;5008616;28;20029;-86
2021/08/14 06:06:44;;;;;;;11.07;6.57;;;20.80;85.50;;;;;;5004535;28;20052;-86
2021/08/14 06:09:11;;;;;;;8.77;6.30;;;20.80;85.10;;;;;;5012820;28;22577;-86
2021/08/14 06:11:37;;;;;;;10.40;6.80;;;20.90;84.70;;;;;;4990745;28;20033;-86
2021/08/14 06:14:03;;;;;;;10.98;6.53;;;21.00;84.30;;;;;;5008066;28;20402;-86
2021/08/14 06:16:29;;;;;;;10.93;6.93;;;21.00;84.30;;;;;;4990530;28;20026;-86
2021/08/14 06:18:55;;;;;;;12.13;6.45;;;21.00;83.80;;;;;;5004272;28;20037;-86
2021/08/14 06:21:20;;;;;;;10.45;6.60;;;21.10;83.30;;;;;;4993041;28;20096;-86
2021/08/14 06:23:46;;;;;;;8.75;6.40;;;21.20;83.30;;;;;;5009388;28;20030;-86
2021/08/14 06:26:11;;;;;;;9.40;6.38;;;21.30;82.50;;;;;;4992469;28;20026;-86
2021/08/14 06:28:37;;;;;;;9.02;6.57;;;21.30;82.60;;;;;;5010590;28;20477;-86
2021/08/14 06:31:03;;;;;;;8.38;6.50;;;21.40;82.00;;;;;;5008788;28;20164;-85
2021/08/14 06:33:28;;;;;;;8.70;6.30;;;21.50;81.80;;;;;;5000782;28;20053;-85
2021/08/14 06:35:54;;;;;;;11.02;6.32;;;21.50;82.00;;;;;;4993951;28;20030;-85
2021/08/14 06:38:20;;;;;;;9.02;6.60;;;21.60;80.80;;;;;;4992561;28;20026;-85
2021/08/14 06:40:46;;;;;;;9.27;5.93;;;21.60;81.80;;;;;;5005917;28;20045;-85
2021/08/14 06:43:11;;;;;;;8.00;6.18;;;21.70;81.70;;;;;;5000903;28;20029;-85
2021/08/14 06:45:37;;;;;;;10.65;6.90;;;21.80;81.10;;;;;;4991138;28;20025;-85
2021/08/14 06:48:03;;;;;;;10.25;6.63;;;21.90;81.30;;;;;;5011399;28;20026;-86
2021/08/14 06:50:28;;;;;;;7.88;6.03;;;21.90;81.00;;;;;;4994405;28;20552;-86
2021/08/14 06:52:54;;;;;;;7.93;6.40;;;22.00;81.10;;;;;;5008011;28;20033;-86
2021/08/14 06:55:20;;;;;;;12.15;6.88;;;22.10;81.00;;;;;;4994180;28;20030;-86
2021/08/14 06:57:46;;;;;;;12.27;7.07;;;22.20;81.30;;;;;;5004629;28;20033;-86
2021/08/14 07:00:12;;;;;;;9.85;6.57;;;22.30;81.40;;;;;;5010634;28;20034;-86
2021/08/14 07:02:41;;;;;;;10.23;6.95;;;22.40;80.40;;;;;;5006860;28;20176;-86
2021/08/14 07:05:08;;;;;;;9.93;6.57;;;22.50;80.10;;;;;;4992242;28;20026;-86
2021/08/14 07:07:33;;;;;;;11.32;6.07;;;22.60;80.30;;;;;;5010279;28;20832;-86
2021/08/14 07:10:05;;;;;;;8.93;6.13;;;22.70;80.00;;;;;;4989297;28;20026;-85
2021/08/14 07:12:31;;;;;;;9.95;6.80;;;22.80;78.40;;;;;;5010639;28;20107;-85
2021/08/14 07:14:59;;;;;;;11.20;7.15;;;22.80;78.30;;;;;;5006680;28;20471;-86
2021/08/14 07:17:25;;;;;;;10.35;6.30;;;22.90;78.60;;;;;;5008882;28;20105;-86
2021/08/14 07:19:51;;;;;;;7.85;5.95;;;23.00;78.30;;;;;;4987048;28;20040;-85
2021/08/14 07:22:17;;;;;;;9.23;6.07;;;23.00;77.50;;;;;;5002482;28;20026;-85
2021/08/14 07:24:42;;;;;;;9.68;6.47;;;23.10;77.70;;;;;;4985906;28;20131;-85
2021/08/14 07:27:08;;;;;;;12.32;6.43;;;23.20;76.70;;;;;;5002862;28;20072;-85
2021/08/14 07:29:34;;;;;;;8.68;5.97;;;23.20;77.20;;;;;;5001845;28;20461;-85
2021/08/14 07:31:59;;;;;;;14.77;6.35;;;23.30;77.20;;;;;;5001658;28;20518;-85
2021/08/14 07:34:25;;;;;;;10.93;6.53;;;23.40;76.70;;;;;;4989818;28;20058;-86
2021/08/14 07:36:50;;;;;;;15.07;6.72;;;23.50;75.30;;;;;;5003840;28;20516;-86
2021/08/14 07:39:17;;;;;;;17.02;6.50;;;23.70;75.60;;;;;;5005989;28;20022;-85
2021/08/14 07:41:42;;;;;;;28.95;8.88;;;23.70;71.40;;;;;;4989259;28;20517;-85
2021/08/14 07:44:08;;;;;;;8.77;5.75;;;23.70;72.30;;;;;;4991041;28;20064;-85
2021/08/14 07:46:34;;;;;;;11.93;5.85;;;23.70;70.80;;;;;;5004138;28;20094;-86
2021/08/14 07:49:00;;;;;;;82.88;15.68;;;23.80;70.30;;;;;;5006446;28;20223;-85
2021/08/14 07:51:26;;;;;;;14.80;7.00;;;23.80;73.10;;;;;;4991096;28;20030;-85
2021/08/14 07:53:52;;;;;;;16.48;6.60;;;23.90;72.00;;;;;;4989673;28;20036;-85
2021/08/14 07:56:17;;;;;;;25.52;6.97;;;23.90;69.50;;;;;;4986274;28;20030;-85
2021/08/14 07:58:43;;;;;;;95.18;16.90;;;24.00;69.60;;;;;;5002807;28;20063;-85
2021/08/14 08:01:09;;;;;;;101.18;17.02;;;24.10;70.70;;;;;;4998327;28;20126;-85
2021/08/14 08:03:34;;;;;;;15.35;5.93;;;24.20;69.90;;;;;;4983614;28;20081;-85
2021/08/14 08:06:00;;;;;;;7.93;5.60;;;24.30;69.20;;;;;;4983912;28;20088;-85
2021/08/14 08:08:25;;;;;;;9.48;6.05;;;24.40;69.10;;;;;;4988079;28;20072;-85
2021/08/14 08:10:51;;;;;;;8.82;5.88;;;24.50;69.00;;;;;;5003026;28;20018;-86
2021/08/14 08:13:17;;;;;;;9.02;5.10;;;24.50;69.00;;;;;;4984687;28;20072;-85
2021/08/14 08:15:42;;;;;;;8.13;5.55;;;24.60;69.10;;;;;;5001374;28;20026;-85
2021/08/14 08:18:12;;;;;;;7.57;5.22;;;24.70;69.60;;;;;;5002205;28;20273;-85
2021/08/14 08:20:38;;;;;;;7.82;5.35;;;24.70;67.30;;;;;;5000469;28;20173;-86
2021/08/14 08:23:04;;;;;;;14.15;5.70;;;24.70;68.20;;;;;;4992687;28;20034;-85
2021/08/14 08:25:30;;;;;;;8.75;4.97;;;24.90;68.60;;;;;;4997888;28;20112;-85
2021/08/14 08:27:58;;;;;;;9.52;6.85;;;24.90;65.80;;;;;;5007629;28;20038;-86
2021/08/14 08:30:24;;;;;;;9.38;5.72;;;25.00;66.80;;;;;;5008603;28;20060;-84
2021/08/14 08:32:49;;;;;;;9.13;5.50;;;25.10;67.50;;;;;;5002205;28;20053;-84
2021/08/14 08:35:15;;;;;;;8.05;5.18;;;25.20;68.30;;;;;;4986861;28;20063;-84
2021/08/14 08:37:41;;;;;;;5.15;4.40;;;25.30;66.30;;;;;;4988501;28;20034;-84
2021/08/14 08:40:07;;;;;;;6.22;4.78;;;25.30;63.70;;;;;;5004416;28;20042;-83
2021/08/14 08:42:33;;;;;;;6.63;4.70;;;25.40;63.90;;;;;;5008124;28;20085;-84
2021/08/14 08:44:59;;;;;;;7.18;4.72;;;25.40;65.40;;;;;;4987114;28;20512;-84
2021/08/14 08:47:28;;;;;;;6.35;4.30;;;25.50;64.40;;;;;;5000979;28;20807;-84
2021/08/14 08:49:57;;;;;;;6.72;4.90;;;25.50;61.50;;;;;;4984273;28;20034;-85
2021/08/14 08:52:23;;;;;;;6.38;4.80;;;25.60;61.70;;;;;;5006241;28;20037;-84
2021/08/14 08:54:50;;;;;;;8.30;5.30;;;25.60;63.50;;;;;;5004343;28;20041;-84
2021/08/14 08:57:15;;;;;;;6.03;4.88;;;25.70;63.80;;;;;;4983759;28;20070;-84
2021/08/14 08:59:43;;;;;;;6.47;4.78;;;25.80;62.50;;;;;;4988164;28;20022;-84
2021/08/14 09:02:22;;;;;;;6.43;5.13;;;25.80;62.60;;;;;;5003122;28;20049;-84
2021/08/14 09:05:14;;;;;;;6.63;5.03;;;25.90;62.90;;;;;;4989686;28;20506;-84
2021/08/14 09:07:41;;;;;;;5.70;4.63;;;26.00;62.30;;;;;;4985927;28;20095;-84
2021/08/14 09:10:16;;;;;;;9.32;5.40;;;26.10;61.00;;;;;;4991041;28;20025;-84
2021/08/14 09:12:43;;;;;;;10.18;4.88;;;26.30;60.90;;;;;;4988706;28;20030;-84
2021/08/14 09:15:19;;;;;;;7.93;4.80;;;26.40;63.30;;;;;;5009082;28;20518;-84
2021/08/14 09:17:46;;;;;;;8.38;5.20;;;26.40;61.60;;;;;;4984820;28;20124;-84
2021/08/14 09:20:19;;;;;;;8.05;4.80;;;26.50;59.60;;;;;;5004146;28;20716;-83
2021/08/14 09:23:06;;;;;;;6.07;4.78;;;26.60;58.30;;;;;;4989545;28;20482;-83
2021/08/14 09:25:39;;;;;;;7.70;5.65;;;26.50;57.30;;;;;;4989247;28;20026;-84
2021/08/14 09:28:06;;;;;;;6.63;4.53;;;26.60;59.70;;;;;;4990508;28;20149;-84
2021/08/14 09:30:53;;;;;;;6.82;4.90;;;26.50;58.20;;;;;;4993983;28;20133;-84
2021/08/14 09:33:24;;;;;;;6.78;4.95;;;26.60;57.60;;;;;;5008058;28;20093;-83
2021/08/14 09:36:10;;;;;;;8.93;5.05;;;26.80;59.00;;;;;;4994038;28;20129;-84
2021/08/14 09:38:40;;;;;;;8.45;4.85;;;27.00;57.90;;;;;;4992894;28;20033;-84
2021/08/14 09:41:17;;;;;;;5.93;4.60;;;27.00;56.20;;;;;;4991966;28;20046;-84
2021/08/14 09:43:44;;;;;;;6.50;5.10;;;27.10;57.20;;;;;;5007094;28;20045;-84
2021/08/14 09:46:11;;;;;;;6.68;4.60;;;27.10;58.00;;;;;;4990576;28;20042;-84
2021/08/14 09:48:37;;;;;;;7.10;4.70;;;27.20;57.60;;;;;;5004863;28;20037;-84
2021/08/14 09:51:03;;;;;;;8.13;4.72;;;27.10;57.10;;;;;;4992632;28;20288;-84
2021/08/14 09:53:30;;;;;;;12.55;5.05;;;27.20;55.20;;;;;;5006250;28;20419;-84
2021/08/14 09:56:12;;;;;;;6.13;4.27;;;27.20;57.10;;;;;;5007435;28;20022;-84
2021/08/14 09:58:40;;;;;;;6.47;4.60;;;27.40;55.30;;;;;;5001855;28;20091;-83
2021/08/14 10:01:07;;;;;;;6.55;4.63;;;27.50;56.60;;;;;;5009423;28;20041;-84
2021/08/14 10:03:35;;;;;;;9.60;4.82;;;27.50;55.90;;;;;;4990075;28;20525;-84
2021/08/14 10:06:02;;;;;;;8.30;5.03;;;27.50;55.50;;;;;;5010494;28;20040;-85
2021/08/14 10:08:28;;;;;;;5.95;4.85;;;27.50;55.70;;;;;;5005967;28;20289;-85
2021/08/14 10:10:55;;;;;;;5.73;4.80;;;27.30;56.90;;;;;;5002122;28;20045;-85
2021/08/14 10:13:22;;;;;;;7.65;5.25;;;27.40;58.80;;;;;;4994169;28;20124;-85
2021/08/14 10:15:49;;;;;;;7.28;5.63;;;27.50;57.80;;;;;;5008819;28;20034;-86
2021/08/14 10:18:18;;;;;;;7.53;5.40;;;27.50;59.20;;;;;;4989356;28;20403;-84
2021/08/14 10:20:45;;;;;;;6.65;4.78;;;27.60;57.30;;;;;;5003029;28;20057;-85
2021/08/14 10:23:12;;;;;;;7.72;4.78;;;27.60;57.10;;;;;;5001944;28;20034;-85
2021/08/14 10:25:43;;;;;;;5.80;5.13;;;27.80;57.00;;;;;;5000041;28;20570;-85
2021/08/14 10:28:09;;;;;;;9.13;6.45;;;27.80;55.60;;;;;;5005521;28;20022;-84
2021/08/14 10:30:46;;;;;;;8.80;4.55;;;27.80;56.40;;;;;;4987676;28;20041;-83
2021/08/14 10:33:37;;;;;;;6.28;5.10;;;27.80;51.50;;;;;;4986812;28;20060;-84
2021/08/14 10:36:18;;;;;;;6.38;4.95;;;27.80;55.00;;;;;;4991835;28;20445;-84
2021/08/14 10:38:50;;;;;;;8.32;5.13;;;27.80;56.80;;;;;;4985306;28;20445;-84
2021/08/14 10:41:17;;;;;;;7.53;4.63;;;27.70;57.50;;;;;;4985852;28;20042;-83
2021/08/14 10:43:52;;;;;;;5.07;4.40;;;27.70;54.60;;;;;;5006244;28;20045;-84
2021/08/14 10:46:43;;;;;;;9.40;5.18;;;27.70;58.30;;;;;;5008193;28;20061;-84
2021/08/14 10:49:31;;;;;;;6.80;4.80;;;27.80;52.00;;;;;;5010108;28;20100;-84
2021/08/14 10:52:03;;;;;;;7.55;5.18;;;27.80;55.40;;;;;;5003551;28;20026;-85
2021/08/14 10:54:33;;;;;;;6.18;4.68;;;27.90;54.90;;;;;;5011917;28;20026;-84
2021/08/14 10:57:09;;;;;;;8.27;5.80;;;28.00;55.80;;;;;;4990027;28;20034;-85
2021/08/14 10:59:37;;;;;;;6.40;4.87;;;27.90;55.70;;;;;;5001789;28;20022;-84
2021/08/14 11:02:06;;;;;;;7.45;5.47;;;28.00;56.70;;;;;;4979137;28;20045;-85
2021/08/14 11:04:36;;;;;;;5.20;4.55;;;28.00;55.40;;;;;;4989081;28;20023;-84
2021/08/14 11:07:20;;;;;;;8.52;4.93;;;27.90;54.50;;;;;;4996053;28;20144;-84
2021/08/14 11:09:58;;;;;;;7.28;4.82;;;27.90;56.20;;;;;;4992318;28;20026;-84
2021/08/14 11:12:35;;;;;;;8.68;5.13;;;28.00;57.70;;;;;;4983679;28;20029;-84
2021/08/14 11:15:24;;;;;;;;;;;28.00;56.20;;;;;;5000942;28;20440;-85
2021/08/14 11:18:01;;;;;;;7.03;4.97;;;27.90;57.30;;;;;;4997884;28;19960;-84
2021/08/14 11:20:39;;;;;;;8.32;5.53;;;27.90;56.00;;;;;;4985792;28;21037;-85
2021/08/14 11:23:27;;;;;;;18.98;8.32;;;28.00;56.40;;;;;;4986449;28;20482;-84
2021/08/14 11:25:54;;;;;;;12.10;6.05;;;27.90;56.30;;;;;;5004068;28;20022;-84
2021/08/14 11:28:28;;;;;;;5.85;4.63;;;27.80;55.30;;;;;;4986380;28;20032;-84
2021/08/14 11:31:01;;;;;;;7.03;4.70;;;27.80;56.50;;;;;;5004111;28;20038;-84
2021/08/14 11:33:28;;;;;;;6.90;5.07;;;27.90;55.40;;;;;;5001449;28;20048;-85
2021/08/14 11:36:06;;;;;;;11.13;5.75;;;27.90;56.10;;;;;;4992755;28;20042;-85
2021/08/14 11:38:41;;;;;;;6.35;5.18;;;28.00;56.70;;;;;;5006420;28;20045;-85
2021/08/14 11:41:20;;;;;;;8.52;4.85;;;28.00;55.80;;;;;;5015541;28;20050;-85
2021/08/14 11:43:46;;;;;;;10.43;5.45;;;27.90;55.70;;;;;;4981657;28;20032;-85
2021/08/14 11:46:12;;;;;;;10.55;5.53;;;27.80;55.00;;;;;;4983289;28;20034;-85
2021/08/14 11:48:45;;;;;;;6.72;4.85;;;27.80;55.40;;;;;;5000938;28;20801;-85
2021/08/14 11:51:22;;;;;;;9.02;5.47;;;27.80;56.60;;;;;;4986942;28;20030;-85
2021/08/14 11:53:49;;;;;;;39.20;8.82;;;27.80;55.10;;;;;;4982319;28;20041;-84
2021/08/14 11:56:17;;;;;;;8.73;5.33;;;27.80;54.90;;;;;;5003968;28;20040;-84
2021/08/14 11:58:43;;;;;;;;;;;27.80;57.40;;;;;;5000789;28;20404;-85
2021/08/14 12:01:12;;;;;;;8.20;5.37;;;27.80;55.80;;;;;;4983826;28;19937;-85
2021/08/14 12:03:38;;;;;;;7.95;5.28;;;27.80;56.80;;;;;;5000945;28;20040;-85
2021/08/14 12:06:12;;;;;;;7.90;5.68;;;28.00;57.80;;;;;;5001541;28;20034;-85
2021/08/14 12:08:46;;;;;;;7.80;5.07;;;27.90;57.30;;;;;;4987659;28;20030;-84
2021/08/14 12:11:19;;;;;;;10.00;5.18;;;27.90;56.30;;;;;;4986062;28;20113;-85
2021/08/14 12:13:45;;;;;;;9.68;5.25;;;27.90;56.50;;;;;;5002904;28;20033;-85
2021/08/14 12:16:13;;;;;;;8.13;5.15;;;27.90;58.40;;;;;;5000694;28;21323;-85
2021/08/14 12:18:40;;;;;;;5.82;5.22;;;27.90;55.60;;;;;;4999325;28;20113;-85
2021/08/14 12:21:07;;;;;;;7.07;5.32;;;27.90;55.20;;;;;;4999510;28;20056;-88
2021/08/14 12:23:35;;;;;;;8.67;5.27;;;28.00;58.50;;;;;;4999882;28;20036;-86
2021/08/14 12:26:07;;;;;;;6.38;5.10;;;28.10;59.70;;;;;;4984999;28;20029;-86
2021/08/14 12:29:03;;;;;;;7.22;4.88;;;28.00;57.80;;;;;;4985056;28;20161;-86
2021/08/14 12:31:29;;;;;;;9.20;4.87;;;28.10;58.60;;;;;;4975469;28;20324;-85
2021/08/14 12:33:57;;;;;;;8.80;5.38;;;28.00;56.60;;;;;;4984773;28;20041;-85
2021/08/14 12:36:37;;;;;;;8.80;5.35;;;27.90;57.30;;;;;;4987685;28;20030;-86
2021/08/14 12:39:05;;;;;;;8.00;5.35;;;28.00;59.30;;;;;;4998412;28;20037;-85
2021/08/14 12:41:36;;;;;;;8.50;5.22;;;28.00;59.20;;;;;;4999699;28;21495;-86
2021/08/14 12:44:02;;;;;;;11.25;5.10;;;28.00;57.40;;;;;;5004143;28;20389;-87
2021/08/14 12:46:28;;;;;;;8.50;5.40;;;28.00;59.90;;;;;;5004748;28;20033;-87
2021/08/14 12:49:17;;;;;;;9.90;5.47;;;28.10;60.00;;;;;;4988571;28;20044;-88